createdAt,value
2017-07-26T00:00:00.778Z,16.31
2017-07-26T00:01:22.869Z,16.39
2017-07-26T00:02:44.766Z,16.35
2017-07-26T00:04:06.609Z,16.35
2017-07-26T00:05:28.457Z,16.34
2017-07-26T00:06:51.225Z,16.38
2017-07-26T00:08:13.507Z,16.28
2017-07-26T00:09:35.366Z,16.41
2017-07-26T00:10:57.506Z,16.34
2017-07-26T00:12:19.714Z,16.31
2017-07-26T00:13:42.197Z,16.28
2017-07-26T00:15:04.063Z,16.28
2017-07-26T00:16:26.226Z,16.38
2017-07-26T00:17:48.396Z,16.3
2017-07-26T00:19:10.244Z,16.3
2017-07-26T00:20:32.415Z,16.33
2017-07-26T00:21:54.997Z,16.27
2017-07-26T00:23:17.717Z,16.3
2017-07-26T00:24:39.865Z,16.21
2017-07-26T00:26:02.043Z,16.27
2017-07-26T00:27:24.253Z,16.23
2017-07-26T00:28:46.637Z,16.3
2017-07-26T00:30:08.491Z,16.31
2017-07-26T00:31:30.317Z,16.31
2017-07-26T00:32:52.208Z,16.3
2017-07-26T00:34:14.656Z,16.27
2017-07-26T00:35:36.584Z,16.23
2017-07-26T00:36:58.752Z,16.27
2017-07-26T00:38:20.705Z,16.27
2017-07-26T00:39:43.197Z,16.3
2017-07-26T00:41:05.066Z,16.33
2017-07-26T00:42:26.594Z,16.3
2017-07-26T00:43:48.117Z,16.3
2017-07-26T00:45:10.269Z,16.3
2017-07-26T00:46:32.139Z,16.3
2017-07-26T00:47:54.077Z,16.3
2017-07-26T00:49:16.260Z,16.27
2017-07-26T00:50:38.332Z,16.3
2017-07-26T00:52:00.611Z,16.23
2017-07-26T00:53:22.765Z,16.21
2017-07-26T00:54:44.613Z,16.25
2017-07-26T00:56:06.390Z,16.34
2017-07-26T00:57:27.902Z,16.17
2017-07-26T00:58:50.056Z,16.27
2017-07-26T01:00:11.621Z,16.35
2017-07-26T01:01:34.087Z,16.27
2017-07-26T01:02:56.246Z,16.34
2017-07-26T01:04:18.396Z,16.31
2017-07-26T01:05:40.657Z,16.3
2017-07-26T01:07:03.388Z,16.24
2017-07-26T01:08:25.538Z,16.21
2017-07-26T01:09:47.706Z,16.24
2017-07-26T01:11:09.876Z,16.17
2017-07-26T01:12:32.116Z,16.2
2017-07-26T01:13:53.650Z,16.2
2017-07-26T01:15:15.795Z,16.05
2017-07-26T01:16:36.997Z,16.08
2017-07-26T01:17:59.146Z,16.04
2017-07-26T01:19:21.000Z,16.04
2017-07-26T01:20:43.447Z,16.02
2017-07-26T01:22:05.930Z,15.96
2017-07-26T01:23:28.487Z,15.93
2017-07-26T01:24:50.614Z,15.93
2017-07-26T01:26:13.097Z,15.96
2017-07-26T01:27:35.235Z,16.02
2017-07-26T01:28:57.634Z,15.89
2017-07-26T01:30:19.527Z,15.89
2017-07-26T01:31:41.986Z,15.83
2017-07-26T01:33:04.137Z,15.86
2017-07-26T01:34:26.587Z,15.72
2017-07-26T01:35:48.103Z,15.8
2017-07-26T01:37:10.012Z,15.72
2017-07-26T01:38:32.177Z,15.68
2017-07-26T01:39:54.244Z,15.68
2017-07-26T01:41:16.126Z,15.68
2017-07-26T01:42:37.645Z,15.69
2017-07-26T01:43:58.885Z,15.67
2017-07-26T01:45:20.426Z,15.71
2017-07-26T01:46:42.257Z,15.68
2017-07-26T01:48:03.777Z,15.64
2017-07-26T01:49:25.295Z,15.62
2017-07-26T01:50:47.744Z,15.6
2017-07-26T01:52:09.565Z,15.54
2017-07-26T01:53:31.454Z,15.62
2017-07-26T01:54:53.267Z,15.59
2017-07-26T01:56:15.983Z,15.54
2017-07-26T01:57:38.155Z,15.57
2017-07-26T01:59:00.306Z,15.57
2017-07-26T02:00:22.457Z,15.54
2017-07-26T02:01:44.959Z,15.51
2017-07-26T02:03:07.115Z,15.59
2017-07-26T02:04:29.349Z,15.54
2017-07-26T02:05:51.267Z,15.51
2017-07-26T02:07:13.706Z,15.57
2017-07-26T02:08:35.547Z,15.51
2017-07-26T02:09:57.398Z,15.51
2017-07-26T02:11:18.996Z,15.59
2017-07-26T02:12:41.468Z,15.51
2017-07-26T02:14:03.607Z,15.54
2017-07-26T02:15:25.873Z,15.49
2017-07-26T02:16:47.697Z,15.57
2017-07-26T02:18:09.785Z,15.53
2017-07-26T02:19:31.967Z,15.46
2017-07-26T02:20:54.146Z,15.6
2017-07-26T02:22:16.289Z,15.49
2017-07-26T02:23:38.095Z,15.51
2017-07-26T02:24:59.927Z,15.57
2017-07-26T02:26:22.427Z,15.47
2017-07-26T02:27:44.918Z,15.43
2017-07-26T02:29:07.635Z,15.46
2017-07-26T02:30:29.882Z,15.44
2017-07-26T02:31:51.552Z,15.47
2017-07-26T02:33:13.497Z,15.39
2017-07-26T02:34:35.057Z,15.38
2017-07-26T02:35:57.212Z,15.28
2017-07-26T02:37:19.358Z,15.34
2017-07-26T02:38:40.865Z,15.29
2017-07-26T02:40:02.636Z,15.28
2017-07-26T02:41:24.847Z,15.17
2017-07-26T02:42:47.351Z,15.17
2017-07-26T02:44:09.964Z,15.17
2017-07-26T02:45:31.812Z,15.13
2017-07-26T02:46:54.316Z,15.17
2017-07-26T02:48:16.817Z,15.06
2017-07-26T02:49:38.015Z,15.16
2017-07-26T02:51:00.348Z,14.95
2017-07-26T02:52:21.877Z,15.06
2017-07-26T02:53:44.136Z,14.99
2017-07-26T02:55:06.605Z,14.95
2017-07-26T02:56:29.013Z,14.94
2017-07-26T02:57:50.527Z,14.86
2017-07-26T02:59:12.051Z,14.86
2017-07-26T03:00:33.580Z,14.86
2017-07-26T03:01:56.339Z,14.88
2017-07-26T03:03:18.497Z,14.83
2017-07-26T03:04:40.358Z,14.83
2017-07-26T03:06:01.886Z,14.83
2017-07-26T03:07:24.068Z,14.78
2017-07-26T03:08:46.527Z,14.78
2017-07-26T03:10:08.375Z,14.8
2017-07-26T03:11:30.833Z,14.83
2017-07-26T03:12:53.666Z,14.78
2017-07-26T03:14:15.178Z,14.78
2017-07-26T03:15:37.635Z,14.8
2017-07-26T03:16:59.461Z,14.83
2017-07-26T03:18:22.162Z,14.89
2017-07-26T03:19:43.764Z,14.78
2017-07-26T03:21:06.309Z,14.89
2017-07-26T03:22:28.517Z,14.83
2017-07-26T03:23:51.003Z,14.91
2017-07-26T03:25:13.151Z,14.86
2017-07-26T03:26:35.726Z,14.95
2017-07-26T03:27:57.879Z,14.86
2017-07-26T03:29:20.017Z,14.94
2017-07-26T03:30:42.479Z,14.99
2017-07-26T03:32:03.986Z,15.02
2017-07-26T03:33:26.185Z,14.99
2017-07-26T03:34:48.617Z,15.02
2017-07-26T03:36:10.174Z,14.95
2017-07-26T03:37:32.367Z,15.03
2017-07-26T03:38:53.873Z,15.03
2017-07-26T03:40:15.974Z,15.06
2017-07-26T03:41:37.487Z,14.98
2017-07-26T03:42:59.466Z,15.03
2017-07-26T03:44:21.689Z,15.03
2017-07-26T03:45:43.588Z,15.11
2017-07-26T03:47:05.759Z,15.07
2017-07-26T03:48:27.995Z,15.03
2017-07-26T03:49:49.917Z,15.1
2017-07-26T03:51:11.681Z,15.1
2017-07-26T03:52:33.517Z,15.13
2017-07-26T03:53:54.776Z,15.14
2017-07-26T03:55:16.287Z,15.19
2017-07-26T03:56:38.597Z,15.27
2017-07-26T03:58:00.767Z,15.17
2017-07-26T03:59:22.927Z,15.28
2017-07-26T04:00:45.057Z,15.27
2017-07-26T04:02:06.928Z,15.31
2017-07-26T04:03:29.107Z,15.38
2017-07-26T04:04:51.268Z,15.41
2017-07-26T04:06:13.097Z,15.35
2017-07-26T04:07:34.877Z,15.41
2017-07-26T04:08:57.028Z,15.36
2017-07-26T04:10:18.541Z,15.39
2017-07-26T04:11:40.717Z,15.35
2017-07-26T04:13:02.859Z,15.39
2017-07-26T04:14:25.515Z,15.35
2017-07-26T04:15:47.733Z,15.43
2017-07-26T04:17:09.667Z,15.5
2017-07-26T04:18:32.053Z,15.49
2017-07-26T04:19:54.017Z,15.46
2017-07-26T04:21:16.501Z,15.56
2017-07-26T04:22:37.407Z,15.47
2017-07-26T04:23:59.617Z,15.53
2017-07-26T04:25:22.080Z,15.54
2017-07-26T04:26:44.366Z,15.56
2017-07-26T04:28:05.888Z,15.62
2017-07-26T04:29:28.476Z,15.65
2017-07-26T04:30:50.320Z,15.68
2017-07-26T04:32:12.555Z,15.67
2017-07-26T04:33:34.786Z,15.67
2017-07-26T04:34:56.927Z,15.65
2017-07-26T04:36:19.173Z,15.71
2017-07-26T04:37:41.323Z,15.74
2017-07-26T04:39:03.474Z,15.74
2017-07-26T04:40:26.266Z,15.69
2017-07-26T04:41:48.181Z,15.74
2017-07-26T04:43:10.347Z,15.75
2017-07-26T04:44:32.530Z,15.82
2017-07-26T04:45:54.417Z,15.94
2017-07-26T04:47:16.319Z,16.01
2017-07-26T04:48:38.797Z,16.07
2017-07-26T04:50:00.357Z,16.02
2017-07-26T04:51:22.109Z,16.12
2017-07-26T04:52:43.632Z,16.2
2017-07-26T04:54:05.487Z,16.27
2017-07-26T04:55:27.017Z,16.41
2017-07-26T04:56:49.148Z,16.35
2017-07-26T04:58:11.034Z,16.42
2017-07-26T04:59:32.586Z,16.52
2017-07-26T05:00:54.766Z,16.5
2017-07-26T05:02:16.598Z,16.68
2017-07-26T05:03:38.856Z,16.82
2017-07-26T05:05:00.565Z,16.76
2017-07-26T05:06:22.407Z,16.76
2017-07-26T05:07:44.487Z,16.83
2017-07-26T05:09:06.300Z,16.89
2017-07-26T05:10:28.777Z,16.73
2017-07-26T05:11:50.653Z,16.91
2017-07-26T05:13:12.851Z,16.93
2017-07-26T05:14:34.706Z,16.97
2017-07-26T05:15:56.552Z,16.97
2017-07-26T05:17:18.728Z,17.03
2017-07-26T05:18:40.578Z,17.06
2017-07-26T05:20:02.425Z,17.14
2017-07-26T05:21:25.047Z,17.16
2017-07-26T05:22:46.889Z,17.22
2017-07-26T05:24:09.295Z,17.3
2017-07-26T05:25:31.122Z,17.33
2017-07-26T05:26:53.337Z,17.48
2017-07-26T05:28:15.156Z,17.48
2017-07-26T05:29:37.937Z,17.56
2017-07-26T05:30:59.586Z,17.7
2017-07-26T05:32:21.440Z,17.84
2017-07-26T05:33:44.028Z,18.08
2017-07-26T05:35:06.157Z,18.2
2017-07-26T05:36:28.294Z,18.48
2017-07-26T05:37:50.480Z,18.63
2017-07-26T05:39:12.320Z,18.62
2017-07-26T05:40:34.760Z,18.54
2017-07-26T05:41:56.919Z,18.48
2017-07-26T05:43:18.467Z,18.2
2017-07-26T05:44:40.636Z,18.14
2017-07-26T05:46:02.397Z,18.1
2017-07-26T05:47:24.265Z,17.92
2017-07-26T05:48:46.416Z,17.89
2017-07-26T05:50:08.637Z,17.78
2017-07-26T05:51:30.459Z,17.7
2017-07-26T05:52:52.371Z,17.66
2017-07-26T05:54:14.245Z,17.64
2017-07-26T05:55:36.455Z,17.55
2017-07-26T05:56:58.965Z,17.55
2017-07-26T05:58:20.901Z,17.49
2017-07-26T05:59:43.097Z,17.49
2017-07-26T06:01:04.967Z,17.43
2017-07-26T06:02:27.575Z,17.52
2017-07-26T06:03:49.427Z,17.48
2017-07-26T06:05:11.286Z,17.48
2017-07-26T06:06:33.447Z,17.49
2017-07-26T06:07:54.897Z,17.51
2017-07-26T06:09:16.744Z,17.56
2017-07-26T06:10:38.579Z,17.7
2017-07-26T06:12:00.717Z,17.89
2017-07-26T06:13:22.858Z,17.96
2017-07-26T06:14:44.372Z,18.15
2017-07-26T06:16:06.373Z,18.33
2017-07-26T06:17:28.547Z,18.41
2017-07-26T06:18:50.346Z,18.55
2017-07-26T06:20:12.198Z,18.6
2017-07-26T06:21:33.734Z,18.72
2017-07-26T06:22:55.935Z,18.85
2017-07-26T06:24:18.439Z,18.91
2017-07-26T06:25:40.366Z,18.91
2017-07-26T06:27:02.543Z,18.9
2017-07-26T06:28:24.792Z,18.98
2017-07-26T06:29:46.716Z,18.98
2017-07-26T06:31:08.562Z,19.08
2017-07-26T06:32:30.455Z,19.23
2017-07-26T06:33:51.667Z,19.14
2017-07-26T06:35:14.199Z,19.28
2017-07-26T06:36:36.710Z,19.32
2017-07-26T06:37:58.603Z,19.5
2017-07-26T06:39:20.447Z,19.61
2017-07-26T06:40:42.592Z,19.62
2017-07-26T06:42:04.117Z,19.61
2017-07-26T06:43:25.948Z,19.46
2017-07-26T06:44:48.517Z,19.39
2017-07-26T06:46:11.267Z,19.28
2017-07-26T06:47:33.510Z,19.13
2017-07-26T06:48:55.974Z,19.06
2017-07-26T06:50:17.825Z,18.92
2017-07-26T06:51:40.027Z,18.91
2017-07-26T06:53:02.624Z,18.73
2017-07-26T06:54:23.847Z,18.85
2017-07-26T06:55:46.443Z,18.76
2017-07-26T06:57:08.887Z,18.73
2017-07-26T06:58:31.049Z,18.73
2017-07-26T06:59:53.254Z,18.75
2017-07-26T07:01:15.094Z,18.72
2017-07-26T07:02:37.538Z,18.75
2017-07-26T07:03:59.725Z,18.81
2017-07-26T07:05:21.886Z,18.73
2017-07-26T07:06:43.736Z,18.75
2017-07-26T07:08:06.570Z,18.84
2017-07-26T07:09:28.407Z,18.9
2017-07-26T07:10:50.885Z,18.92
2017-07-26T07:12:13.035Z,19.08
2017-07-26T07:13:35.960Z,19.16
2017-07-26T07:14:58.482Z,19.36
2017-07-26T07:16:20.634Z,19.46
2017-07-26T07:17:42.796Z,19.47
2017-07-26T07:19:05.002Z,19.59
2017-07-26T07:20:26.608Z,19.58
2017-07-26T07:21:48.586Z,19.59
2017-07-26T07:23:10.854Z,19.66
2017-07-26T07:24:33.395Z,19.68
2017-07-26T07:25:55.566Z,19.61
2017-07-26T07:27:18.042Z,19.61
2017-07-26T07:28:40.607Z,19.59
2017-07-26T07:30:03.331Z,19.59
2017-07-26T07:31:25.265Z,19.69
2017-07-26T07:32:47.737Z,19.78
2017-07-26T07:34:09.268Z,19.96
2017-07-26T07:35:32.091Z,20.05
2017-07-26T07:36:53.968Z,20.23
2017-07-26T07:38:15.866Z,20.41
2017-07-26T07:39:38.034Z,20.57
2017-07-26T07:41:00.489Z,20.77
2017-07-26T07:42:22.643Z,20.92
2017-07-26T07:43:44.918Z,20.99
2017-07-26T07:45:06.431Z,21.21
2017-07-26T07:46:28.206Z,21.28
2017-07-26T07:47:49.722Z,21.31
2017-07-26T07:49:12.186Z,21.62
2017-07-26T07:50:34.015Z,22.1
2017-07-26T07:51:56.621Z,22.3
2017-07-26T07:53:18.785Z,22.37
2017-07-26T07:54:40.947Z,22.02
2017-07-26T07:56:03.479Z,21.86
2017-07-26T07:57:25.640Z,21.69
2017-07-26T07:58:47.507Z,21.61
2017-07-26T08:00:09.042Z,21.5
2017-07-26T08:01:31.542Z,21.43
2017-07-26T08:02:54.013Z,21.37
2017-07-26T08:04:16.516Z,21.38
2017-07-26T08:05:38.998Z,21.28
2017-07-26T08:07:00.836Z,21.13
2017-07-26T08:08:23.245Z,21.25
2017-07-26T08:09:45.949Z,21.22
2017-07-26T08:11:07.906Z,21.34
2017-07-26T08:12:30.080Z,21.34
2017-07-26T08:13:52.956Z,21.35
2017-07-26T08:15:15.492Z,21.32
2017-07-26T08:16:37.047Z,21.31
2017-07-26T08:17:59.766Z,21.31
2017-07-26T08:19:22.537Z,21.38
2017-07-26T08:20:44.726Z,21.4
2017-07-26T08:22:06.572Z,21.52
2017-07-26T08:23:28.090Z,21.59
2017-07-26T08:24:50.507Z,21.65
2017-07-26T08:26:12.769Z,21.69
2017-07-26T08:27:35.249Z,21.67
2017-07-26T08:28:56.763Z,21.72
2017-07-26T08:30:18.902Z,21.74
2017-07-26T08:31:41.075Z,21.77
2017-07-26T08:33:03.395Z,21.71
2017-07-26T08:34:25.297Z,21.74
2017-07-26T08:35:47.382Z,21.88
2017-07-26T08:37:09.255Z,21.98
2017-07-26T08:38:31.478Z,22.03
2017-07-26T08:39:53.024Z,21.94
2017-07-26T08:41:15.514Z,22.12
2017-07-26T08:42:37.360Z,22.15
2017-07-26T08:43:59.507Z,22.2
2017-07-26T08:45:21.776Z,22.31
2017-07-26T08:46:44.246Z,22.45
2017-07-26T08:48:06.470Z,22.55
2017-07-26T08:49:28.926Z,22.72
2017-07-26T08:50:51.465Z,22.83
2017-07-26T08:52:12.937Z,22.68
2017-07-26T08:53:34.795Z,22.7
2017-07-26T08:54:56.974Z,22.77
2017-07-26T08:56:19.143Z,22.9
2017-07-26T08:57:41.453Z,23.13
2017-07-26T08:59:02.663Z,23.22
2017-07-26T09:00:24.905Z,23.13
2017-07-26T09:01:47.091Z,23.25
2017-07-26T09:03:08.927Z,23.22
2017-07-26T09:04:31.426Z,23.31
2017-07-26T09:05:53.595Z,23.54
2017-07-26T09:07:15.813Z,23.83
2017-07-26T09:08:38.563Z,24.05
2017-07-26T09:10:00.437Z,24.16
2017-07-26T09:11:22.293Z,24.06
2017-07-26T09:12:44.146Z,24.22
2017-07-26T09:14:06.657Z,23.97
2017-07-26T09:15:28.574Z,23.94
2017-07-26T09:16:51.065Z,24.37
2017-07-26T09:18:12.914Z,24.5
2017-07-26T09:19:35.387Z,24.68
2017-07-26T09:20:57.686Z,24.69
2017-07-26T09:22:19.935Z,24.6
2017-07-26T09:23:41.491Z,24.3
2017-07-26T09:25:04.040Z,24.2
2017-07-26T09:26:26.526Z,24.58
2017-07-26T09:27:48.685Z,24.8
2017-07-26T09:29:10.895Z,24.55
2017-07-26T09:30:33.390Z,24.4
2017-07-26T09:31:55.890Z,24.39
2017-07-26T09:33:17.734Z,24.34
2017-07-26T09:34:39.657Z,24.5
2017-07-26T09:36:02.442Z,24.39
2017-07-26T09:37:24.688Z,24.49
2017-07-26T09:38:46.873Z,24.69
2017-07-26T09:40:09.077Z,24.87
2017-07-26T09:41:31.538Z,23.76
2017-07-26T09:42:53.732Z,23.97
2017-07-26T09:44:17.598Z,24.28
2017-07-26T09:45:40.128Z,24.71
2017-07-26T09:47:02.705Z,25.08
2017-07-26T09:48:24.876Z,24.53
2017-07-26T09:49:46.746Z,24.34
2017-07-26T09:51:08.686Z,24.22
2017-07-26T09:52:30.918Z,24.45
2017-07-26T09:53:52.787Z,24.31
2017-07-26T09:55:14.999Z,24.45
2017-07-26T09:56:37.276Z,24.93
2017-07-26T09:57:59.612Z,25.06
2017-07-26T09:59:21.169Z,24.81
2017-07-26T10:00:43.332Z,24.52
2017-07-26T10:02:05.216Z,25.13
2017-07-26T10:03:27.102Z,25.05
2017-07-26T10:04:48.717Z,24.69
2017-07-26T10:06:11.191Z,24.55
2017-07-26T10:07:33.361Z,24.09
2017-07-26T10:08:55.875Z,23.95
2017-07-26T10:10:18.158Z,23.27
2017-07-26T10:11:39.692Z,23.36
2017-07-26T10:13:01.855Z,23.15
2017-07-26T10:14:24.619Z,22.75
2017-07-26T10:15:46.796Z,22.91
2017-07-26T10:17:08.707Z,23.02
2017-07-26T10:18:30.869Z,23.09
2017-07-26T10:19:53.436Z,23.54
2017-07-26T10:21:14.976Z,24.15
2017-07-26T10:22:36.526Z,24.57
2017-07-26T10:23:58.475Z,24.31
2017-07-26T10:25:20.951Z,24.34
2017-07-26T10:26:43.157Z,24.37
2017-07-26T10:28:05.322Z,24.28
2017-07-26T10:29:27.481Z,24.15
2017-07-26T10:30:49.564Z,24.31
2017-07-26T10:32:11.913Z,24.57
2017-07-26T10:33:33.132Z,24.76
2017-07-26T10:34:55.328Z,24.84
2017-07-26T10:36:18.076Z,24.3
2017-07-26T10:37:40.565Z,23.79
2017-07-26T10:39:02.473Z,23.58
2017-07-26T10:40:24.705Z,23.4
2017-07-26T10:41:47.124Z,23.32
2017-07-26T10:43:09.065Z,23.31
2017-07-26T10:44:31.018Z,23.4
2017-07-26T10:45:52.875Z,23.23
2017-07-26T10:47:14.704Z,23.31
2017-07-26T10:48:37.287Z,23.22
2017-07-26T10:49:59.784Z,23.33
2017-07-26T10:51:21.943Z,23.55
2017-07-26T10:52:44.734Z,23.27
2017-07-26T10:54:06.883Z,23.31
2017-07-26T10:55:29.372Z,23.7
2017-07-26T10:56:50.916Z,23.94
2017-07-26T10:58:14.066Z,23.55
2017-07-26T10:59:36.555Z,23.61
2017-07-26T11:00:58.836Z,23.57
2017-07-26T11:02:20.373Z,23.9
2017-07-26T11:03:42.596Z,24.34
2017-07-26T11:05:04.456Z,24.65
2017-07-26T11:06:26.667Z,24.85
2017-07-26T11:07:49.142Z,25.08
2017-07-26T11:09:11.239Z,24.62
2017-07-26T11:10:33.065Z,24.22
2017-07-26T11:11:54.911Z,23.8
2017-07-26T11:13:17.436Z,23.79
2017-07-26T11:14:39.946Z,23.63
2017-07-26T11:16:02.112Z,23.83
2017-07-26T11:17:23.876Z,24.03
2017-07-26T11:18:46.378Z,24.32
2017-07-26T11:20:08.533Z,24.52
2017-07-26T11:21:30.431Z,24.65
2017-07-26T11:22:52.678Z,24.73
2017-07-26T11:24:15.033Z,24.88
2017-07-26T11:25:36.548Z,24.78
2017-07-26T11:26:58.721Z,25.08
2017-07-26T11:28:21.297Z,25.25
2017-07-26T11:29:43.797Z,25.1
2017-07-26T11:31:06.526Z,25.15
2017-07-26T11:32:28.712Z,25.05
2017-07-26T11:33:51.216Z,24.8
2017-07-26T11:35:13.378Z,24.77
2017-07-26T11:36:36.253Z,24.98
2017-07-26T11:37:58.590Z,24.81
2017-07-26T11:39:20.806Z,24.85
2017-07-26T11:40:43.306Z,25.4
2017-07-26T11:42:05.745Z,25.88
2017-07-26T11:43:28.084Z,26.06
2017-07-26T11:44:50.391Z,25.54
2017-07-26T11:46:12.370Z,25.23
2017-07-26T11:47:34.477Z,24.84
2017-07-26T11:48:56.970Z,24.31
2017-07-26T11:50:19.185Z,24.16
2017-07-26T11:51:41.682Z,23.83
2017-07-26T11:53:04.406Z,23.79
2017-07-26T11:54:26.291Z,23.88
2017-07-26T11:55:47.496Z,24.24
2017-07-26T11:57:09.821Z,24.64
2017-07-26T11:58:32.137Z,25.06
2017-07-26T11:59:54.286Z,25.72
2017-07-26T12:01:16.877Z,26.05
2017-07-26T12:02:38.425Z,26.26
2017-07-26T12:04:00.976Z,26.09
2017-07-26T12:05:23.459Z,26.32
2017-07-26T12:06:45.303Z,26.05
2017-07-26T12:08:07.839Z,26.02
2017-07-26T12:09:30.239Z,25.95
2017-07-26T12:10:52.407Z,25.55
2017-07-26T12:12:13.606Z,25.1
2017-07-26T12:13:35.754Z,24.76
2017-07-26T12:14:57.932Z,24.65
2017-07-26T12:16:20.421Z,24.8
2017-07-26T12:17:42.000Z,24.73
2017-07-26T12:19:04.203Z,24.81
2017-07-26T12:20:26.680Z,25.03
2017-07-26T12:21:48.625Z,25.13
2017-07-26T12:23:11.176Z,24.96
2017-07-26T12:24:33.130Z,24.81
2017-07-26T12:25:55.906Z,24.83
2017-07-26T12:27:17.888Z,24.87
2017-07-26T12:28:40.072Z,24.84
2017-07-26T12:30:02.228Z,25.03
2017-07-26T12:31:24.764Z,25
2017-07-26T12:32:46.934Z,25.14
2017-07-26T12:34:09.107Z,25.3
2017-07-26T12:35:31.585Z,25.39
2017-07-26T12:36:54.168Z,25.46
2017-07-26T12:38:16.345Z,25.77
2017-07-26T12:39:38.526Z,25.57
2017-07-26T12:41:00.704Z,25.33
2017-07-26T12:42:22.845Z,25.35
2017-07-26T12:43:45.342Z,25.5
2017-07-26T12:45:07.203Z,25.52
2017-07-26T12:46:29.804Z,25.85
2017-07-26T12:47:51.650Z,25.52
2017-07-26T12:49:13.883Z,25.52
2017-07-26T12:50:35.846Z,25.6
2017-07-26T12:51:58.351Z,25.67
2017-07-26T12:53:20.514Z,25.76
2017-07-26T12:54:42.695Z,25.27
2017-07-26T12:56:04.854Z,25.05
2017-07-26T12:57:27.025Z,25.02
2017-07-26T12:58:49.545Z,25.09
2017-07-26T13:00:11.714Z,25.38
2017-07-26T13:01:33.293Z,25.4
2017-07-26T13:02:55.458Z,25.35
2017-07-26T13:04:17.863Z,25.25
2017-07-26T13:05:40.078Z,25.14
2017-07-26T13:07:02.235Z,25.05
2017-07-26T13:08:24.446Z,25.14
2017-07-26T13:09:46.596Z,25.18
2017-07-26T13:11:08.964Z,24.95
2017-07-26T13:12:31.161Z,24.9
2017-07-26T13:13:53.789Z,24.84
2017-07-26T13:15:16.537Z,24.8
2017-07-26T13:16:38.715Z,24.8
2017-07-26T13:18:00.901Z,24.87
2017-07-26T13:19:22.881Z,24.45
2017-07-26T13:20:44.992Z,24.5
2017-07-26T13:22:06.843Z,24.24
2017-07-26T13:23:29.334Z,24.34
2017-07-26T13:24:51.493Z,24.39
2017-07-26T13:26:13.918Z,24.37
2017-07-26T13:27:35.752Z,24.4
2017-07-26T13:28:58.224Z,24.61
2017-07-26T13:30:20.465Z,24.64
2017-07-26T13:31:42.885Z,24.6
2017-07-26T13:33:05.376Z,24.57
2017-07-26T13:34:27.225Z,24.67
2017-07-26T13:35:48.819Z,24.57
2017-07-26T13:37:11.238Z,24.47
2017-07-26T13:38:33.723Z,24.3
2017-07-26T13:39:55.563Z,24.3
2017-07-26T13:41:17.482Z,24.43
2017-07-26T13:42:40.006Z,24.4
2017-07-26T13:44:02.285Z,24.65
2017-07-26T13:45:24.785Z,24.67
2017-07-26T13:46:46.965Z,24.95
2017-07-26T13:48:09.136Z,25.18
2017-07-26T13:49:30.992Z,25.21
2017-07-26T13:50:52.909Z,24.95
2017-07-26T13:52:15.430Z,24.6
2017-07-26T13:53:37.431Z,24.62
2017-07-26T13:54:58.982Z,24.68
2017-07-26T13:56:20.997Z,24.52
2017-07-26T13:57:43.482Z,24.45
2017-07-26T13:59:06.013Z,24.37
2017-07-26T14:00:28.501Z,24.32
2017-07-26T14:01:50.157Z,24.46
2017-07-26T14:03:12.012Z,24.31
2017-07-26T14:04:34.456Z,24.28
2017-07-26T14:05:56.693Z,24.31
2017-07-26T14:07:18.680Z,24.4
2017-07-26T14:08:40.924Z,24.34
2017-07-26T14:10:03.402Z,24.35
2017-07-26T14:11:25.256Z,24.5
2017-07-26T14:12:47.119Z,24.61
2017-07-26T14:14:08.978Z,24.64
2017-07-26T14:15:31.155Z,24.67
2017-07-26T14:16:53.333Z,24.58
2017-07-26T14:18:15.822Z,24.67
2017-07-26T14:19:37.995Z,24.37
2017-07-26T14:21:00.184Z,24.35
2017-07-26T14:22:22.653Z,24.37
2017-07-26T14:23:44.998Z,24.27
2017-07-26T14:25:07.197Z,24.06
2017-07-26T14:26:29.706Z,24.15
2017-07-26T14:27:51.865Z,24.27
2017-07-26T14:29:14.393Z,24.24
2017-07-26T14:30:36.876Z,24.31
2017-07-26T14:31:59.161Z,24.06
2017-07-26T14:33:21.012Z,24.12
2017-07-26T14:34:43.514Z,24.02
2017-07-26T14:36:05.394Z,23.97
2017-07-26T14:37:27.872Z,23.88
2017-07-26T14:38:50.101Z,23.8
2017-07-26T14:40:12.279Z,23.84
2017-07-26T14:41:34.129Z,24
2017-07-26T14:42:56.413Z,24
2017-07-26T14:44:18.596Z,24.13
2017-07-26T14:45:41.133Z,24.1
2017-07-26T14:47:02.969Z,24.25
2017-07-26T14:48:25.051Z,24.32
2017-07-26T14:49:46.914Z,24.35
2017-07-26T14:51:09.103Z,24.2
2017-07-26T14:52:31.593Z,24.16
2017-07-26T14:53:53.063Z,24.22
2017-07-26T14:55:14.904Z,23.9
2017-07-26T14:56:36.774Z,23.91
2017-07-26T14:57:58.623Z,24.12
2017-07-26T14:59:21.160Z,24.22
2017-07-26T15:00:43.016Z,23.97
2017-07-26T15:02:05.494Z,23.8
2017-07-26T15:03:27.669Z,23.69
2017-07-26T15:04:50.084Z,23.79
2017-07-26T15:06:12.242Z,23.88
2017-07-26T15:07:33.897Z,24.02
2017-07-26T15:08:56.493Z,24
2017-07-26T15:10:18.993Z,24.1
2017-07-26T15:11:40.552Z,24.28
2017-07-26T15:13:03.059Z,24.27
2017-07-26T15:14:25.556Z,24.31
2017-07-26T15:15:48.164Z,24.21
2017-07-26T15:17:10.025Z,24.27
2017-07-26T15:18:31.935Z,24.22
2017-07-26T15:19:53.846Z,24.12
2017-07-26T15:21:16.357Z,23.9
2017-07-26T15:22:38.556Z,23.93
2017-07-26T15:24:00.755Z,24.13
2017-07-26T15:25:23.127Z,24.09
2017-07-26T15:26:45.595Z,24.08
2017-07-26T15:28:07.775Z,23.9
2017-07-26T15:29:29.953Z,23.95
2017-07-26T15:30:52.210Z,23.97
2017-07-26T15:32:14.385Z,23.94
2017-07-26T15:33:36.600Z,23.73
2017-07-26T15:34:58.186Z,23.85
2017-07-26T15:36:20.108Z,23.8
2017-07-26T15:37:42.290Z,23.83
2017-07-26T15:39:04.171Z,23.79
2017-07-26T15:40:26.065Z,23.8
2017-07-26T15:41:47.931Z,23.8
2017-07-26T15:43:09.716Z,23.78
2017-07-26T15:44:31.898Z,23.68
2017-07-26T15:45:54.085Z,23.51
2017-07-26T15:47:16.006Z,23.58
2017-07-26T15:48:38.117Z,23.46
2017-07-26T15:50:00.597Z,23.5
2017-07-26T15:51:22.882Z,23.39
2017-07-26T15:52:45.040Z,23.5
2017-07-26T15:54:07.865Z,23.47
2017-07-26T15:55:30.023Z,23.19
2017-07-26T15:56:52.188Z,23.25
2017-07-26T15:58:14.454Z,23.28
2017-07-26T15:59:36.611Z,23.27
2017-07-26T16:00:58.791Z,23.25
2017-07-26T16:02:21.295Z,23.27
2017-07-26T16:03:43.177Z,23.31
2017-07-26T16:05:06.109Z,23.25
2017-07-26T16:06:28.016Z,23.23
2017-07-26T16:07:50.616Z,23.19
2017-07-26T16:09:12.805Z,23.27
2017-07-26T16:10:34.638Z,23.16
2017-07-26T16:11:56.857Z,23.07
2017-07-26T16:13:19.355Z,23.05
2017-07-26T16:14:41.556Z,23.1
2017-07-26T16:16:04.397Z,23.02
2017-07-26T16:17:26.600Z,23.1
2017-07-26T16:18:48.744Z,23.2
2017-07-26T16:20:10.993Z,23.2
2017-07-26T16:21:33.685Z,23.2
2017-07-26T16:22:56.183Z,23.23
2017-07-26T16:24:18.435Z,23.25
2017-07-26T16:25:40.718Z,23.25
2017-07-26T16:27:03.253Z,23.33
2017-07-26T16:28:25.756Z,23.31
2017-07-26T16:29:48.266Z,23.36
2017-07-26T16:31:10.454Z,23.42
2017-07-26T16:32:32.664Z,23.51
2017-07-26T16:33:54.886Z,23.47
2017-07-26T16:35:17.087Z,23.39
2017-07-26T16:36:39.305Z,23.31
2017-07-26T16:38:01.445Z,23.25
2017-07-26T16:39:23.293Z,23.33
2017-07-26T16:40:45.773Z,23.31
2017-07-26T16:42:07.636Z,23.27
2017-07-26T16:43:30.586Z,23.5
2017-07-26T16:44:52.424Z,23.54
2017-07-26T16:46:15.016Z,23.63
2017-07-26T16:47:37.572Z,23.6
2017-07-26T16:49:00.008Z,23.54
2017-07-26T16:50:22.506Z,23.68
2017-07-26T16:51:44.688Z,23.58
2017-07-26T16:53:07.195Z,23.61
2017-07-26T16:54:29.595Z,23.58
2017-07-26T16:55:51.810Z,23.66
2017-07-26T16:57:13.697Z,23.46
2017-07-26T16:58:36.175Z,23.54
2017-07-26T16:59:58.487Z,23.43
2017-07-26T17:01:20.962Z,23.43
2017-07-26T17:02:43.275Z,23.51
2017-07-26T17:04:05.604Z,23.55
2017-07-26T17:05:28.010Z,23.65
2017-07-26T17:06:49.904Z,23.69
2017-07-26T17:08:12.524Z,23.63
2017-07-26T17:09:34.695Z,23.69
2017-07-26T17:10:57.175Z,23.5
2017-07-26T17:12:19.384Z,23.43
2017-07-26T17:13:41.315Z,23.42
2017-07-26T17:15:03.850Z,23.53
2017-07-26T17:16:26.376Z,23.47
2017-07-26T17:17:48.856Z,23.4
2017-07-26T17:19:11.012Z,23.42
2017-07-26T17:20:33.236Z,23.46
2017-07-26T17:21:55.343Z,23.4
2017-07-26T17:23:18.046Z,23.27
2017-07-26T17:24:40.218Z,23.17
2017-07-26T17:26:02.491Z,23.2
2017-07-26T17:27:25.234Z,23.09
2017-07-26T17:28:47.425Z,23.12
2017-07-26T17:30:09.916Z,23.2
2017-07-26T17:31:32.084Z,23.15
2017-07-26T17:32:54.883Z,23.12
2017-07-26T17:34:17.365Z,23.09
2017-07-26T17:35:39.635Z,23.07
2017-07-26T17:37:01.889Z,23.12
2017-07-26T17:38:24.367Z,23.1
2017-07-26T17:39:46.208Z,23.12
2017-07-26T17:41:08.727Z,22.95
2017-07-26T17:42:30.998Z,22.9